sensor_id;sensor_type;location;lat;lon;timestamp;P1;durP1;ratioP1;P2;durP2;ratioP2
59157;SDS011;44940;55.060;73.168;2022-09-09T00:00:23;5.00;;;3.30;;
59157;SDS011;44940;55.060;73.168;2022-09-09T00:02:54;5.93;;;3.42;;
59157;SDS011;44940;55.060;73.168;2022-09-09T00:05:28;6.47;;;3.70;;
59157;SDS011;44940;55.060;73.168;2022-09-09T00:07:59;4.72;;;3.35;;
59157;SDS011;44940;55.060;73.168;2022-09-09T00:10:32;4.75;;;3.10;;
59157;SDS011;44940;55.060;73.168;2022-09-09T00:13:08;4.00;;;2.50;;
59157;SDS011;44940;55.060;73.168;2022-09-09T00:15:44;4.60;;;2.92;;
59157;SDS011;44940;55.060;73.168;2022-09-09T00:18:22;4.82;;;2.90;;
59157;SDS011;44940;55.060;73.168;2022-09-09T00:20:57;4.85;;;2.97;;
59157;SDS011;44940;55.060;73.168;2022-09-09T00:23:29;5.38;;;3.20;;
59157;SDS011;44940;55.060;73.168;2022-09-09T00:26:04;18.13;;;6.22;;
59157;SDS011;44940;55.060;73.168;2022-09-09T00:28:37;12.60;;;4.15;;
59157;SDS011;44940;55.060;73.168;2022-09-09T00:31:12;11.55;;;4.30;;
59157;SDS011;44940;55.060;73.168;2022-09-09T00:33:42;9.05;;;4.22;;
59157;SDS011;44940;55.060;73.168;2022-09-09T00:36:12;21.27;;;4.82;;
59157;SDS011;44940;55.060;73.168;2022-09-09T00:38:42;15.57;;;4.07;;
59157;SDS011;44940;55.060;73.168;2022-09-09T00:41:17;7.32;;;3.67;;
59157;SDS011;44940;55.060;73.168;2022-09-09T00:43:51;23.95;;;4.85;;
59157;SDS011;44940;55.060;73.168;2022-09-09T00:46:33;11.20;;;3.80;;
59157;SDS011;44940;55.060;73.168;2022-09-09T00:49:15;11.18;;;3.72;;
59157;SDS011;44940;55.060;73.168;2022-09-09T00:51:50;12.50;;;3.92;;
59157;SDS011;44940;55.060;73.168;2022-09-09T00:54:28;14.45;;;3.67;;
59157;SDS011;44940;55.060;73.168;2022-09-09T00:57:10;9.00;;;3.58;;
59157;SDS011;44940;55.060;73.168;2022-09-09T00:59:46;11.68;;;3.50;;
59157;SDS011;44940;55.060;73.168;2022-09-09T01:02:18;23.50;;;5.18;;
59157;SDS011;44940;55.060;73.168;2022-09-09T01:04:54;16.63;;;4.40;;
59157;SDS011;44940;55.060;73.168;2022-09-09T01:07:28;33.92;;;6.63;;
59157;SDS011;44940;55.060;73.168;2022-09-09T01:09:56;10.25;;;3.88;;
59157;SDS011;44940;55.060;73.168;2022-09-09T01:12:28;7.35;;;3.97;;
59157;SDS011;44940;55.060;73.168;2022-09-09T01:15:03;10.13;;;4.50;;
59157;SDS011;44940;55.060;73.168;2022-09-09T01:17:46;12.20;;;4.40;;
59157;SDS011;44940;55.060;73.168;2022-09-09T01:20:19;9.95;;;5.25;;
59157;SDS011;44940;55.060;73.168;2022-09-09T01:23:06;12.77;;;6.43;;
59157;SDS011;44940;55.060;73.168;2022-09-09T01:28:45;9.70;;;5.68;;
59157;SDS011;44940;55.060;73.168;2022-09-09T01:31:17;11.25;;;5.22;;
59157;SDS011;44940;55.060;73.168;2022-09-09T01:33:48;9.02;;;5.93;;
59157;SDS011;44940;55.060;73.168;2022-09-09T01:36:18;13.10;;;5.25;;
59157;SDS011;44940;55.060;73.168;2022-09-09T01:38:54;10.50;;;5.57;;
59157;SDS011;44940;55.060;73.168;2022-09-09T01:41:24;6.72;;;4.95;;
59157;SDS011;44940;55.060;73.168;2022-09-09T01:44:06;10.02;;;4.57;;
59157;SDS011;44940;55.060;73.168;2022-09-09T01:46:37;10.23;;;5.07;;
59157;SDS011;44940;55.060;73.168;2022-09-09T01:49:06;8.25;;;4.80;;
59157;SDS011;44940;55.060;73.168;2022-09-09T01:51:35;8.05;;;4.85;;
59157;SDS011;44940;55.060;73.168;2022-09-09T01:54:07;10.57;;;4.70;;
59157;SDS011;44940;55.060;73.168;2022-09-09T01:56:42;10.02;;;5.22;;
59157;SDS011;44940;55.060;73.168;2022-09-09T01:59:20;12.35;;;5.70;;
59157;SDS011;44940;55.060;73.168;2022-09-09T02:02:07;8.38;;;5.13;;
59157;SDS011;44940;55.060;73.168;2022-09-09T02:04:42;12.32;;;4.95;;
59157;SDS011;44940;55.060;73.168;2022-09-09T02:07:28;6.88;;;3.53;;
59157;SDS011;44940;55.060;73.168;2022-09-09T02:10:09;5.88;;;3.30;;
59157;SDS011;44940;55.060;73.168;2022-09-09T02:12:43;7.13;;;3.60;;
59157;SDS011;44940;55.060;73.168;2022-09-09T02:15:16;5.40;;;3.63;;
59157;SDS011;44940;55.060;73.168;2022-09-09T02:17:50;10.00;;;3.55;;
59157;SDS011;44940;55.060;73.168;2022-09-09T02:20:21;5.97;;;3.50;;
59157;SDS011;44940;55.060;73.168;2022-09-09T02:22:59;5.40;;;3.05;;
59157;SDS011;44940;55.060;73.168;2022-09-09T02:25:30;4.63;;;3.13;;
59157;SDS011;44940;55.060;73.168;2022-09-09T02:28:10;6.68;;;3.00;;
59157;SDS011;44940;55.060;73.168;2022-09-09T02:30:41;5.38;;;3.40;;
59157;SDS011;44940;55.060;73.168;2022-09-09T02:33:16;7.78;;;2.92;;
59157;SDS011;44940;55.060;73.168;2022-09-09T02:35:48;3.45;;;2.30;;
59157;SDS011;44940;55.060;73.168;2022-09-09T02:38:20;6.03;;;2.83;;
59157;SDS011;44940;55.060;73.168;2022-09-09T02:41:05;6.07;;;2.47;;
59157;SDS011;44940;55.060;73.168;2022-09-09T02:43:35;3.20;;;2.42;;
59157;SDS011;44940;55.060;73.168;2022-09-09T02:46:08;4.90;;;2.70;;
59157;SDS011;44940;55.060;73.168;2022-09-09T02:48:55;3.90;;;2.50;;
59157;SDS011;44940;55.060;73.168;2022-09-09T02:51:33;4.68;;;2.90;;
59157;SDS011;44940;55.060;73.168;2022-09-09T02:54:09;3.53;;;2.75;;
59157;SDS011;44940;55.060;73.168;2022-09-09T02:56:45;3.10;;;2.15;;
59157;SDS011;44940;55.060;73.168;2022-09-09T02:59:22;3.47;;;2.35;;
59157;SDS011;44940;55.060;73.168;2022-09-09T03:01:52;3.35;;;2.00;;
59157;SDS011;44940;55.060;73.168;2022-09-09T03:04:20;3.97;;;1.90;;
59157;SDS011;44940;55.060;73.168;2022-09-09T03:06:48;2.22;;;1.73;;
59157;SDS011;44940;55.060;73.168;2022-09-09T03:09:19;5.47;;;1.85;;
59157;SDS011;44940;55.060;73.168;2022-09-09T03:11:46;2.58;;;1.92;;
59157;SDS011;44940;55.060;73.168;2022-09-09T03:14:15;5.25;;;1.60;;
59157;SDS011;44940;55.060;73.168;2022-09-09T03:16:44;2.78;;;1.90;;
59157;SDS011;44940;55.060;73.168;2022-09-09T03:19:12;2.65;;;1.77;;
59157;SDS011;44940;55.060;73.168;2022-09-09T03:21:41;3.67;;;1.80;;
59157;SDS011;44940;55.060;73.168;2022-09-09T03:24:08;4.30;;;1.70;;
59157;SDS011;44940;55.060;73.168;2022-09-09T03:26:36;4.50;;;1.83;;
59157;SDS011;44940;55.060;73.168;2022-09-09T03:29:04;3.70;;;1.60;;
59157;SDS011;44940;55.060;73.168;2022-09-09T03:31:33;5.53;;;1.52;;
59157;SDS011;44940;55.060;73.168;2022-09-09T03:34:01;3.03;;;1.38;;
59157;SDS011;44940;55.060;73.168;2022-09-09T03:38:59;4.07;;;1.63;;
59157;SDS011;44940;55.060;73.168;2022-09-09T03:41:29;2.42;;;1.40;;
59157;SDS011;44940;55.060;73.168;2022-09-09T03:43:58;4.10;;;2.20;;
59157;SDS011;44940;55.060;73.168;2022-09-09T03:46:27;4.72;;;1.60;;
59157;SDS011;44940;55.060;73.168;2022-09-09T03:48:59;3.78;;;1.50;;
59157;SDS011;44940;55.060;73.168;2022-09-09T03:51:29;2.75;;;1.45;;
59157;SDS011;44940;55.060;73.168;2022-09-09T03:53:56;2.00;;;1.48;;
59157;SDS011;44940;55.060;73.168;2022-09-09T03:56:26;1.58;;;1.20;;
59157;SDS011;44940;55.060;73.168;2022-09-09T03:58:53;1.80;;;1.08;;
59157;SDS011;44940;55.060;73.168;2022-09-09T04:01:21;5.18;;;1.30;;
59157;SDS011;44940;55.060;73.168;2022-09-09T04:03:48;1.83;;;1.05;;
59157;SDS011;44940;55.060;73.168;2022-09-09T04:06:17;3.03;;;1.00;;
59157;SDS011;44940;55.060;73.168;2022-09-09T04:08:48;3.33;;;0.90;;
59157;SDS011;44940;55.060;73.168;2022-09-09T04:11:16;1.67;;;1.00;;
59157;SDS011;44940;55.060;73.168;2022-09-09T04:13:44;4.40;;;1.45;;
59157;SDS011;44940;55.060;73.168;2022-09-09T04:16:13;1.38;;;1.00;;
59157;SDS011;44940;55.060;73.168;2022-09-09T04:18:42;6.75;;;1.80;;
59157;SDS011;44940;55.060;73.168;2022-09-09T04:21:09;1.80;;;1.20;;
59157;SDS011;44940;55.060;73.168;2022-09-09T04:23:38;1.02;;;0.93;;
59157;SDS011;44940;55.060;73.168;2022-09-09T04:26:07;1.33;;;0.80;;
59157;SDS011;44940;55.060;73.168;2022-09-09T04:28:36;4.10;;;1.20;;
59157;SDS011;44940;55.060;73.168;2022-09-09T04:31:07;2.10;;;1.20;;
59157;SDS011;44940;55.060;73.168;2022-09-09T04:33:38;1.77;;;1.00;;
59157;SDS011;44940;55.060;73.168;2022-09-09T04:36:05;1.30;;;0.95;;
59157;SDS011;44940;55.060;73.168;2022-09-09T04:38:33;1.70;;;1.05;;
59157;SDS011;44940;55.060;73.168;2022-09-09T04:41:01;1.33;;;0.90;;
59157;SDS011;44940;55.060;73.168;2022-09-09T04:43:30;4.30;;;1.08;;
59157;SDS011;44940;55.060;73.168;2022-09-09T04:45:58;2.83;;;1.40;;
59157;SDS011;44940;55.060;73.168;2022-09-09T04:48:25;4.20;;;0.95;;
59157;SDS011;44940;55.060;73.168;2022-09-09T04:50:54;2.40;;;1.00;;
59157;SDS011;44940;55.060;73.168;2022-09-09T04:53:22;1.40;;;0.90;;
59157;SDS011;44940;55.060;73.168;2022-09-09T04:55:49;3.85;;;0.82;;
59157;SDS011;44940;55.060;73.168;2022-09-09T04:58:16;4.80;;;2.75;;
59157;SDS011;44940;55.060;73.168;2022-09-09T05:00:46;7.00;;;3.90;;
59157;SDS011;44940;55.060;73.168;2022-09-09T05:03:13;107.18;;;97.35;;
59157;SDS011;44940;55.060;73.168;2022-09-09T05:05:40;128.57;;;109.93;;
59157;SDS011;44940;55.060;73.168;2022-09-09T05:08:08;141.75;;;120.80;;
59157;SDS011;44940;55.060;73.168;2022-09-09T05:10:37;68.10;;;60.95;;
59157;SDS011;44940;55.060;73.168;2022-09-09T05:13:05;27.73;;;24.75;;
59157;SDS011;44940;55.060;73.168;2022-09-09T05:15:33;12.60;;;6.97;;
59157;SDS011;44940;55.060;73.168;2022-09-09T05:18:03;4.18;;;1.10;;
59157;SDS011;44940;55.060;73.168;2022-09-09T05:20:32;2.53;;;1.10;;
59157;SDS011;44940;55.060;73.168;2022-09-09T05:23:01;1.30;;;0.93;;
59157;SDS011;44940;55.060;73.168;2022-09-09T05:25:30;1.42;;;0.90;;
59157;SDS011;44940;55.060;73.168;2022-09-09T05:27:58;1.42;;;0.98;;
59157;SDS011;44940;55.060;73.168;2022-09-09T05:30:26;1.15;;;0.90;;
59157;SDS011;44940;55.060;73.168;2022-09-09T05:32:55;1.88;;;1.00;;
59157;SDS011;44940;55.060;73.168;2022-09-09T05:35:24;1.75;;;0.95;;
59157;SDS011;44940;55.060;73.168;2022-09-09T05:37:51;3.08;;;1.00;;
59157;SDS011;44940;55.060;73.168;2022-09-09T05:40:19;3.05;;;1.15;;
59157;SDS011;44940;55.060;73.168;2022-09-09T05:42:48;1.63;;;0.95;;
59157;SDS011;44940;55.060;73.168;2022-09-09T05:45:15;1.85;;;1.00;;
59157;SDS011;44940;55.060;73.168;2022-09-09T05:47:42;3.50;;;1.20;;
59157;SDS011;44940;55.060;73.168;2022-09-09T05:50:12;2.78;;;1.60;;
59157;SDS011;44940;55.060;73.168;2022-09-09T05:52:41;6.22;;;2.30;;
59157;SDS011;44940;55.060;73.168;2022-09-09T05:55:11;6.90;;;1.88;;
59157;SDS011;44940;55.060;73.168;2022-09-09T05:57:38;2.20;;;1.30;;
59157;SDS011;44940;55.060;73.168;2022-09-09T06:00:06;4.10;;;1.20;;
59157;SDS011;44940;55.060;73.168;2022-09-09T06:02:40;1.65;;;0.85;;
59157;SDS011;44940;55.060;73.168;2022-09-09T06:05:10;3.28;;;1.67;;
59157;SDS011;44940;55.060;73.168;2022-09-09T06:07:37;4.78;;;1.90;;
59157;SDS011;44940;55.060;73.168;2022-09-09T06:10:10;3.58;;;1.38;;
59157;SDS011;44940;55.060;73.168;2022-09-09T06:12:40;3.95;;;1.50;;
59157;SDS011;44940;55.060;73.168;2022-09-09T06:15:07;3.20;;;1.08;;
59157;SDS011;44940;55.060;73.168;2022-09-09T06:17:35;2.50;;;1.50;;
59157;SDS011;44940;55.060;73.168;2022-09-09T06:20:03;2.90;;;1.20;;
59157;SDS011;44940;55.060;73.168;2022-09-09T06:22:32;3.47;;;1.35;;
59157;SDS011;44940;55.060;73.168;2022-09-09T06:24:59;1.83;;;1.10;;
59157;SDS011;44940;55.060;73.168;2022-09-09T06:27:29;2.05;;;1.05;;
59157;SDS011;44940;55.060;73.168;2022-09-09T06:29:57;1.17;;;0.70;;
59157;SDS011;44940;55.060;73.168;2022-09-09T06:32:24;3.83;;;1.00;;
59157;SDS011;44940;55.060;73.168;2022-09-09T06:34:54;4.10;;;1.60;;
59157;SDS011;44940;55.060;73.168;2022-09-09T06:37:22;3.33;;;0.82;;
59157;SDS011;44940;55.060;73.168;2022-09-09T06:39:50;1.45;;;0.90;;
59157;SDS011;44940;55.060;73.168;2022-09-09T06:42:18;2.38;;;0.98;;
59157;SDS011;44940;55.060;73.168;2022-09-09T06:44:50;2.10;;;1.33;;
59157;SDS011;44940;55.060;73.168;2022-09-09T06:47:33;1.38;;;0.95;;
59157;SDS011;44940;55.060;73.168;2022-09-09T06:50:00;3.83;;;2.80;;
59157;SDS011;44940;55.060;73.168;2022-09-09T06:52:32;2.00;;;1.47;;
59157;SDS011;44940;55.060;73.168;2022-09-09T06:55:00;1.67;;;1.10;;
59157;SDS011;44940;55.060;73.168;2022-09-09T06:57:30;1.13;;;0.82;;
59157;SDS011;44940;55.060;73.168;2022-09-09T06:59:58;1.75;;;1.13;;
59157;SDS011;44940;55.060;73.168;2022-09-09T07:02:25;2.75;;;1.00;;
59157;SDS011;44940;55.060;73.168;2022-09-09T07:04:53;8.00;;;4.05;;
59157;SDS011;44940;55.060;73.168;2022-09-09T07:07:20;1.15;;;0.80;;
59157;SDS011;44940;55.060;73.168;2022-09-09T07:09:48;9.90;;;4.82;;
59157;SDS011;44940;55.060;73.168;2022-09-09T07:12:15;34.55;;;20.42;;
59157;SDS011;44940;55.060;73.168;2022-09-09T07:14:50;9.07;;;5.35;;
59157;SDS011;44940;55.060;73.168;2022-09-09T07:17:18;2.65;;;1.20;;
59157;SDS011;44940;55.060;73.168;2022-09-09T07:19:46;2.80;;;1.40;;
59157;SDS011;44940;55.060;73.168;2022-09-09T07:22:15;2.22;;;1.20;;
59157;SDS011;44940;55.060;73.168;2022-09-09T07:24:43;2.38;;;1.38;;
59157;SDS011;44940;55.060;73.168;2022-09-09T07:27:11;3.15;;;1.88;;
59157;SDS011;44940;55.060;73.168;2022-09-09T07:29:39;5.40;;;2.05;;
59157;SDS011;44940;55.060;73.168;2022-09-09T07:32:07;4.43;;;1.10;;
59157;SDS011;44940;55.060;73.168;2022-09-09T07:34:38;3.03;;;1.02;;
59157;SDS011;44940;55.060;73.168;2022-09-09T07:37:06;6.45;;;1.23;;
59157;SDS011;44940;55.060;73.168;2022-09-09T07:39:35;4.55;;;0.90;;
59157;SDS011;44940;55.060;73.168;2022-09-09T07:42:02;2.25;;;0.90;;
59157;SDS011;44940;55.060;73.168;2022-09-09T07:44:31;1.83;;;1.02;;
59157;SDS011;44940;55.060;73.168;2022-09-09T07:47:05;3.55;;;1.60;;
59157;SDS011;44940;55.060;73.168;2022-09-09T07:49:41;3.60;;;1.85;;
59157;SDS011;44940;55.060;73.168;2022-09-09T07:52:09;6.55;;;2.45;;
59157;SDS011;44940;55.060;73.168;2022-09-09T07:54:40;3.25;;;1.25;;
59157;SDS011;44940;55.060;73.168;2022-09-09T07:57:08;5.05;;;2.97;;
59157;SDS011;44940;55.060;73.168;2022-09-09T07:59:37;2.33;;;1.52;;
59157;SDS011;44940;55.060;73.168;2022-09-09T08:02:04;7.15;;;2.00;;
59157;SDS011;44940;55.060;73.168;2022-09-09T08:04:34;5.05;;;1.30;;
59157;SDS011;44940;55.060;73.168;2022-09-09T08:07:04;5.05;;;2.80;;
59157;SDS011;44940;55.060;73.168;2022-09-09T08:09:37;3.67;;;1.50;;
59157;SDS011;44940;55.060;73.168;2022-09-09T08:12:11;3.83;;;1.20;;
59157;SDS011;44940;55.060;73.168;2022-09-09T08:14:39;8.77;;;1.50;;
59157;SDS011;44940;55.060;73.168;2022-09-09T08:17:06;3.08;;;1.30;;
59157;SDS011;44940;55.060;73.168;2022-09-09T08:19:34;3.00;;;1.35;;
59157;SDS011;44940;55.060;73.168;2022-09-09T08:22:04;6.35;;;1.70;;
59157;SDS011;44940;55.060;73.168;2022-09-09T08:24:34;6.18;;;1.60;;
59157;SDS011;44940;55.060;73.168;2022-09-09T08:27:02;3.15;;;2.00;;
59157;SDS011;44940;55.060;73.168;2022-09-09T08:29:29;5.85;;;1.60;;
59157;SDS011;44940;55.060;73.168;2022-09-09T08:31:58;6.82;;;1.77;;
59157;SDS011;44940;55.060;73.168;2022-09-09T08:34:27;4.85;;;1.30;;
59157;SDS011;44940;55.060;73.168;2022-09-09T08:36:58;5.72;;;1.77;;
59157;SDS011;44940;55.060;73.168;2022-09-09T08:39:34;9.32;;;1.92;;
59157;SDS011;44940;55.060;73.168;2022-09-09T08:42:06;4.65;;;1.50;;
59157;SDS011;44940;55.060;73.168;2022-09-09T08:45:00;9.50;;;2.08;;
59157;SDS011;44940;55.060;73.168;2022-09-09T08:47:51;4.10;;;2.35;;
59157;SDS011;44940;55.060;73.168;2022-09-09T08:50:28;7.20;;;1.83;;
59157;SDS011;44940;55.060;73.168;2022-09-09T08:53:05;4.07;;;1.90;;
59157;SDS011;44940;55.060;73.168;2022-09-09T08:55:41;17.67;;;1.80;;
59157;SDS011;44940;55.060;73.168;2022-09-09T08:58:14;5.47;;;1.70;;
59157;SDS011;44940;55.060;73.168;2022-09-09T09:00:54;3.72;;;1.48;;
59157;SDS011;44940;55.060;73.168;2022-09-09T09:03:32;3.83;;;1.42;;
59157;SDS011;44940;55.060;73.168;2022-09-09T09:06:13;8.18;;;1.90;;
59157;SDS011;44940;55.060;73.168;2022-09-09T09:08:56;5.47;;;1.75;;
59157;SDS011;44940;55.060;73.168;2022-09-09T09:11:35;4.28;;;2.05;;
59157;SDS011;44940;55.060;73.168;2022-09-09T09:14:07;6.45;;;1.77;;
59157;SDS011;44940;55.060;73.168;2022-09-09T09:16:39;4.50;;;1.52;;
59157;SDS011;44940;55.060;73.168;2022-09-09T09:19:11;4.57;;;1.65;;
59157;SDS011;44940;55.060;73.168;2022-09-09T09:21:43;8.38;;;1.88;;
59157;SDS011;44940;55.060;73.168;2022-09-09T09:24:15;4.97;;;1.75;;
59157;SDS011;44940;55.060;73.168;2022-09-09T09:26:47;4.00;;;1.50;;
59157;SDS011;44940;55.060;73.168;2022-09-09T09:29:15;3.65;;;1.55;;
59157;SDS011;44940;55.060;73.168;2022-09-09T09:31:45;9.13;;;1.70;;
59157;SDS011;44940;55.060;73.168;2022-09-09T09:34:17;3.85;;;1.70;;
59157;SDS011;44940;55.060;73.168;2022-09-09T09:36:53;2.10;;;1.50;;
59157;SDS011;44940;55.060;73.168;2022-09-09T09:39:24;8.48;;;1.63;;
59157;SDS011;44940;55.060;73.168;2022-09-09T09:41:58;6.55;;;1.90;;
59157;SDS011;44940;55.060;73.168;2022-09-09T09:44:37;5.43;;;1.63;;
59157;SDS011;44940;55.060;73.168;2022-09-09T09:47:11;11.25;;;2.00;;
59157;SDS011;44940;55.060;73.168;2022-09-09T09:49:51;3.15;;;1.77;;
59157;SDS011;44940;55.060;73.168;2022-09-09T09:52:20;5.25;;;2.08;;
59157;SDS011;44940;55.060;73.168;2022-09-09T09:54:50;9.00;;;2.83;;
59157;SDS011;44940;55.060;73.168;2022-09-09T09:57:24;4.65;;;2.70;;
59157;SDS011;44940;55.060;73.168;2022-09-09T10:00:02;6.20;;;2.65;;
59157;SDS011;44940;55.060;73.168;2022-09-09T10:02:41;5.45;;;3.38;;
59157;SDS011;44940;55.060;73.168;2022-09-09T10:05:16;8.15;;;2.50;;
59157;SDS011;44940;55.060;73.168;2022-09-09T10:07:59;7.63;;;3.20;;
59157;SDS011;44940;55.060;73.168;2022-09-09T10:10:37;10.05;;;2.88;;
59157;SDS011;44940;55.060;73.168;2022-09-09T10:13:18;4.25;;;2.40;;
59157;SDS011;44940;55.060;73.168;2022-09-09T10:15:55;9.30;;;2.65;;
59157;SDS011;44940;55.060;73.168;2022-09-09T10:18:35;6.28;;;3.03;;
59157;SDS011;44940;55.060;73.168;2022-09-09T10:21:12;7.82;;;2.47;;
59157;SDS011;44940;55.060;73.168;2022-09-09T10:26:31;8.82;;;3.67;;
59157;SDS011;44940;55.060;73.168;2022-09-09T10:29:26;3.10;;;1.90;;
59157;SDS011;44940;55.060;73.168;2022-09-09T10:32:15;6.05;;;2.05;;
59157;SDS011;44940;55.060;73.168;2022-09-09T10:34:58;7.18;;;2.40;;
59157;SDS011;44940;55.060;73.168;2022-09-09T10:37:41;9.35;;;2.40;;
59157;SDS011;44940;55.060;73.168;2022-09-09T10:40:24;8.60;;;1.88;;
59157;SDS011;44940;55.060;73.168;2022-09-09T10:43:00;2.85;;;1.70;;
59157;SDS011;44940;55.060;73.168;2022-09-09T10:45:43;5.18;;;1.98;;
59157;SDS011;44940;55.060;73.168;2022-09-09T10:48:31;6.85;;;2.50;;
59157;SDS011;44940;55.060;73.168;2022-09-09T10:51:13;3.15;;;2.10;;
59157;SDS011;44940;55.060;73.168;2022-09-09T10:53:51;4.05;;;1.80;;
59157;SDS011;44940;55.060;73.168;2022-09-09T10:56:26;6.40;;;2.20;;
59157;SDS011;44940;55.060;73.168;2022-09-09T10:58:56;3.63;;;2.30;;
59157;SDS011;44940;55.060;73.168;2022-09-09T11:01:30;7.20;;;2.38;;
59157;SDS011;44940;55.060;73.168;2022-09-09T11:04:05;4.55;;;2.13;;
59157;SDS011;44940;55.060;73.168;2022-09-09T11:06:40;3.60;;;2.00;;
59157;SDS011;44940;55.060;73.168;2022-09-09T11:09:13;7.03;;;2.00;;
59157;SDS011;44940;55.060;73.168;2022-09-09T11:11:44;4.93;;;2.10;;
59157;SDS011;44940;55.060;73.168;2022-09-09T11:14:19;6.45;;;2.10;;
59157;SDS011;44940;55.060;73.168;2022-09-09T11:16:56;8.25;;;2.25;;
59157;SDS011;44940;55.060;73.168;2022-09-09T11:19:28;7.40;;;2.28;;
59157;SDS011;44940;55.060;73.168;2022-09-09T11:22:00;5.45;;;1.95;;
59157;SDS011;44940;55.060;73.168;2022-09-09T11:24:31;2.75;;;1.80;;
59157;SDS011;44940;55.060;73.168;2022-09-09T11:27:06;4.68;;;1.70;;
59157;SDS011;44940;55.060;73.168;2022-09-09T11:29:49;5.30;;;1.85;;
59157;SDS011;44940;55.060;73.168;2022-09-09T11:32:44;6.13;;;1.88;;
59157;SDS011;44940;55.060;73.168;2022-09-09T11:35:33;5.82;;;1.95;;
59157;SDS011;44940;55.060;73.168;2022-09-09T11:38:14;5.90;;;2.72;;
59157;SDS011;44940;55.060;73.168;2022-09-09T11:40:45;8.20;;;3.30;;
59157;SDS011;44940;55.060;73.168;2022-09-09T11:43:21;8.27;;;4.43;;
59157;SDS011;44940;55.060;73.168;2022-09-09T11:45:54;10.48;;;5.47;;
59157;SDS011;44940;55.060;73.168;2022-09-09T11:48:28;11.43;;;5.65;;
59157;SDS011;44940;55.060;73.168;2022-09-09T11:50:59;16.63;;;10.07;;
59157;SDS011;44940;55.060;73.168;2022-09-09T11:53:29;17.65;;;11.60;;
59157;SDS011;44940;55.060;73.168;2022-09-09T11:56:00;19.10;;;11.73;;
59157;SDS011;44940;55.060;73.168;2022-09-09T11:58:31;20.55;;;11.43;;
59157;SDS011;44940;55.060;73.168;2022-09-09T12:01:12;24.08;;;10.93;;
59157;SDS011;44940;55.060;73.168;2022-09-09T12:03:59;18.52;;;10.57;;
59157;SDS011;44940;55.060;73.168;2022-09-09T12:06:43;13.13;;;9.30;;
59157;SDS011;44940;55.060;73.168;2022-09-09T12:09:17;19.25;;;9.40;;
59157;SDS011;44940;55.060;73.168;2022-09-09T12:11:49;17.77;;;9.10;;
59157;SDS011;44940;55.060;73.168;2022-09-09T12:14:20;12.25;;;7.25;;
59157;SDS011;44940;55.060;73.168;2022-09-09T12:16:49;14.98;;;7.50;;
59157;SDS011;44940;55.060;73.168;2022-09-09T12:19:21;16.17;;;8.63;;
59157;SDS011;44940;55.060;73.168;2022-09-09T12:21:51;17.80;;;8.55;;
59157;SDS011;44940;55.060;73.168;2022-09-09T12:24:27;11.30;;;6.45;;
59157;SDS011;44940;55.060;73.168;2022-09-09T12:27:02;11.68;;;6.32;;
59157;SDS011;44940;55.060;73.168;2022-09-09T12:29:40;12.68;;;4.95;;
59157;SDS011;44940;55.060;73.168;2022-09-09T12:32:14;9.23;;;5.35;;
59157;SDS011;44940;55.060;73.168;2022-09-09T12:34:47;7.43;;;4.55;;
59157;SDS011;44940;55.060;73.168;2022-09-09T12:37:21;12.77;;;4.38;;
59157;SDS011;44940;55.060;73.168;2022-09-09T12:39:59;7.17;;;4.30;;
59157;SDS011;44940;55.060;73.168;2022-09-09T12:42:30;10.23;;;4.25;;
59157;SDS011;44940;55.060;73.168;2022-09-09T12:45:00;8.50;;;3.92;;
59157;SDS011;44940;55.060;73.168;2022-09-09T12:47:32;10.20;;;3.58;;
59157;SDS011;44940;55.060;73.168;2022-09-09T12:50:16;11.70;;;3.80;;
59157;SDS011;44940;55.060;73.168;2022-09-09T12:52:47;7.18;;;3.05;;
59157;SDS011;44940;55.060;73.168;2022-09-09T12:55:18;13.30;;;2.80;;
59157;SDS011;44940;55.060;73.168;2022-09-09T12:57:47;5.57;;;2.47;;
59157;SDS011;44940;55.060;73.168;2022-09-09T13:00:17;3.45;;;2.25;;
59157;SDS011;44940;55.060;73.168;2022-09-09T13:02:47;5.32;;;2.30;;
59157;SDS011;44940;55.060;73.168;2022-09-09T13:05:19;5.28;;;1.90;;
59157;SDS011;44940;55.060;73.168;2022-09-09T13:07:49;7.90;;;2.17;;
59157;SDS011;44940;55.060;73.168;2022-09-09T13:10:20;2.95;;;1.90;;
59157;SDS011;44940;55.060;73.168;2022-09-09T13:12:50;6.55;;;2.08;;
59157;SDS011;44940;55.060;73.168;2022-09-09T13:15:19;10.85;;;1.73;;
59157;SDS011;44940;55.060;73.168;2022-09-09T13:17:50;5.78;;;2.10;;
59157;SDS011;44940;55.060;73.168;2022-09-09T13:20:20;9.45;;;2.20;;
59157;SDS011;44940;55.060;73.168;2022-09-09T13:22:49;5.25;;;2.33;;
59157;SDS011;44940;55.060;73.168;2022-09-09T13:25:20;6.22;;;2.70;;
59157;SDS011;44940;55.060;73.168;2022-09-09T13:27:54;8.85;;;4.38;;
59157;SDS011;44940;55.060;73.168;2022-09-09T13:30:24;9.82;;;4.35;;
59157;SDS011;44940;55.060;73.168;2022-09-09T13:33:00;12.07;;;6.05;;
59157;SDS011;44940;55.060;73.168;2022-09-09T13:35:31;15.00;;;5.43;;
59157;SDS011;44940;55.060;73.168;2022-09-09T13:37:58;14.48;;;5.85;;
59157;SDS011;44940;55.060;73.168;2022-09-09T13:40:33;11.35;;;5.35;;
59157;SDS011;44940;55.060;73.168;2022-09-09T13:43:01;11.02;;;5.03;;
59157;SDS011;44940;55.060;73.168;2022-09-09T13:45:28;12.77;;;4.65;;
59157;SDS011;44940;55.060;73.168;2022-09-09T13:47:55;15.88;;;5.63;;
59157;SDS011;44940;55.060;73.168;2022-09-09T13:50:23;12.27;;;5.18;;
59157;SDS011;44940;55.060;73.168;2022-09-09T13:52:54;14.05;;;7.40;;
59157;SDS011;44940;55.060;73.168;2022-09-09T13:55:24;23.40;;;10.10;;
59157;SDS011;44940;55.060;73.168;2022-09-09T13:57:53;24.25;;;10.70;;
59157;SDS011;44940;55.060;73.168;2022-09-09T14:00:22;39.88;;;18.48;;
59157;SDS011;44940;55.060;73.168;2022-09-09T14:02:53;62.00;;;30.08;;
59157;SDS011;44940;55.060;73.168;2022-09-09T14:05:21;82.38;;;39.75;;
59157;SDS011;44940;55.060;73.168;2022-09-09T14:07:48;54.72;;;27.35;;
59157;SDS011;44940;55.060;73.168;2022-09-09T14:10:17;46.95;;;20.92;;
59157;SDS011;44940;55.060;73.168;2022-09-09T14:12:45;39.25;;;14.43;;
59157;SDS011;44940;55.060;73.168;2022-09-09T14:15:12;43.15;;;17.42;;
59157;SDS011;44940;55.060;73.168;2022-09-09T14:17:40;41.92;;;16.17;;
59157;SDS011;44940;55.060;73.168;2022-09-09T14:20:08;37.65;;;15.63;;
59157;SDS011;44940;55.060;73.168;2022-09-09T14:22:38;56.42;;;25.42;;
59157;SDS011;44940;55.060;73.168;2022-09-09T14:25:08;63.50;;;30.70;;
59157;SDS011;44940;55.060;73.168;2022-09-09T14:27:36;48.35;;;22.95;;
59157;SDS011;44940;55.060;73.168;2022-09-09T14:30:06;48.75;;;27.55;;
59157;SDS011;44940;55.060;73.168;2022-09-09T14:32:34;62.13;;;30.42;;
59157;SDS011;44940;55.060;73.168;2022-09-09T14:35:02;59.70;;;26.95;;
59157;SDS011;44940;55.060;73.168;2022-09-09T14:37:29;41.05;;;19.65;;
59157;SDS011;44940;55.060;73.168;2022-09-09T14:39:57;53.35;;;21.83;;
59157;SDS011;44940;55.060;73.168;2022-09-09T14:42:24;54.63;;;24.52;;
59157;SDS011;44940;55.060;73.168;2022-09-09T14:44:54;48.78;;;23.23;;
59157;SDS011;44940;55.060;73.168;2022-09-09T14:47:21;62.65;;;23.63;;
59157;SDS011;44940;55.060;73.168;2022-09-09T14:49:48;51.05;;;23.13;;
59157;SDS011;44940;55.060;73.168;2022-09-09T14:52:16;55.58;;;26.83;;
59157;SDS011;44940;55.060;73.168;2022-09-09T14:54:43;81.03;;;35.00;;
59157;SDS011;44940;55.060;73.168;2022-09-09T14:57:10;72.95;;;37.10;;
59157;SDS011;44940;55.060;73.168;2022-09-09T14:59:37;75.00;;;37.67;;
59157;SDS011;44940;55.060;73.168;2022-09-09T15:02:07;94.75;;;42.22;;
59157;SDS011;44940;55.060;73.168;2022-09-09T15:04:34;100.20;;;47.22;;